This is the latest recevied weather packets stored in our database for station/object WA7ABU-29. If no packets are shown the sender has not sent any weather packets the latest 10 day(s).
| Time | Temp. | Humidity | Pressure | Rain* | Wind** | Luminosity | Snow |
|---|---|---|---|---|---|---|---|
| 1777630082 | 11.11° C | 83% | 997 hPa | 0 mm | - | - | - |
| 1777629958 | 11.11° C | 82% | 997.3 hPa | 0 mm | - | - | - |
| 1777629834 | 11.11° C | 82% | 997.3 hPa | 0 mm | - | - | - |
| 1777629587 | 11.67° C | 81% | 997.3 hPa | 0 mm | - | - | - |
| 1777628810 | 12.78° C | 78% | 997 hPa | 0 mm | - | - | - |
| 1777628562 | 12.78° C | 78% | 997 hPa | 0 mm | - | - | - |
| 1777628002 | 12.78° C | 78% | 997.3 hPa | 0 mm | - | - | - |
| 1777627631 | 12.22° C | 79% | 997 hPa | 0 mm | - | - | - |
| 1777626607 | 12.22° C | 79% | 997 hPa | 0 mm | - | - | - |
| 1777625672 | 12.78° C | 76% | 997 hPa | 0 mm | - | - | - |
| 1777625548 | 12.78° C | 76% | 997.3 hPa | 0 mm | - | - | - |
| 1777623750 | 12.22° C | 75% | 997 hPa | 0 mm | - | - | - |
| 1777623347 | 12.78° C | 75% | 997.3 hPa | 0 mm | - | - | - |
| 1777623099 | 12.78° C | 73% | 997.3 hPa | 0 mm | - | - | - |
| 1777622232 | 14.44° C | 64% | 997.3 hPa | 0 mm | - | - | - |
| 1777622109 | 15° C | 63% | 997 hPa | 0 mm | - | - | - |
| 1777619194 | 13.33° C | 71% | 997 hPa | 0 mm | - | - | - |
| 1777619070 | 13.33° C | 72% | 997 hPa | 0 mm | - | - | - |
| 1777618170 | 13.33° C | 71% | 997 hPa | 0 mm | - | - | - |
| 1777618149 | 13.33° C | 71% | 997 hPa | 0 mm | - | - | - |
| 1777617871 | 13.33° C | 70% | 997 hPa | 0 mm | - | - | - |
| 1777617624 | 13.89° C | 70% | 997 hPa | 0 mm | - | - | - |
| 1777617602 | 13.89° C | 69% | 997 hPa | 0 mm | - | - | - |
| 1777617344 | 13.89° C | 69% | 997 hPa | 0 mm | - | - | - |
| 1777617097 | 13.89° C | 68% | 997 hPa | 0 mm | - | - | - |
* Rain latest hour (hover to see other rain measurements)
** Current wind speed in m/s (hover to see current wind gust speed)